sensor_id;sensor_type;location;lat;lon;timestamp;temperature;humidity
47434;SHT31;33184;48.774;8.918;2022-08-19T00:01:10;20.06;72.88
47434;SHT31;33184;48.774;8.918;2022-08-19T00:06:34;20.06;73.05
47434;SHT31;33184;48.774;8.918;2022-08-19T00:11:56;20.00;73.33
47434;SHT31;33184;48.774;8.918;2022-08-19T00:17:18;19.97;73.60
47434;SHT31;33184;48.774;8.918;2022-08-19T00:22:38;19.90;73.77
47434;SHT31;33184;48.774;8.918;2022-08-19T00:28:01;19.87;74.08
47434;SHT31;33184;48.774;8.918;2022-08-19T00:33:22;19.91;73.76
47434;SHT31;33184;48.774;8.918;2022-08-19T00:38:42;19.89;73.95
47434;SHT31;33184;48.774;8.918;2022-08-19T00:44:24;19.84;74.08
47434;SHT31;33184;48.774;8.918;2022-08-19T00:49:49;19.81;73.96
47434;SHT31;33184;48.774;8.918;2022-08-19T00:55:18;19.86;73.93
47434;SHT31;33184;48.774;8.918;2022-08-19T01:00:39;19.80;74.15
47434;SHT31;33184;48.774;8.918;2022-08-19T01:06:00;19.81;74.29
47434;SHT31;33184;48.774;8.918;2022-08-19T01:11:21;19.76;74.46
47434;SHT31;33184;48.774;8.918;2022-08-19T01:16:42;19.70;74.71
47434;SHT31;33184;48.774;8.918;2022-08-19T01:22:13;19.66;74.87
47434;SHT31;33184;48.774;8.918;2022-08-19T01:27:40;19.66;74.92
47434;SHT31;33184;48.774;8.918;2022-08-19T01:33:02;19.62;74.97
47434;SHT31;33184;48.774;8.918;2022-08-19T01:38:26;19.65;75.08
47434;SHT31;33184;48.774;8.918;2022-08-19T01:43:49;19.59;75.11
47434;SHT31;33184;48.774;8.918;2022-08-19T01:49:10;19.59;75.40
47434;SHT31;33184;48.774;8.918;2022-08-19T01:54:31;19.53;75.50
47434;SHT31;33184;48.774;8.918;2022-08-19T01:59:54;19.53;75.71
47434;SHT31;33184;48.774;8.918;2022-08-19T02:05:15;19.49;76.03
47434;SHT31;33184;48.774;8.918;2022-08-19T02:10:42;19.46;76.19
47434;SHT31;33184;48.774;8.918;2022-08-19T02:16:03;19.45;76.54
47434;SHT31;33184;48.774;8.918;2022-08-19T02:21:24;19.41;76.65
47434;SHT31;33184;48.774;8.918;2022-08-19T02:26:45;19.38;76.99
47434;SHT31;33184;48.774;8.918;2022-08-19T02:32:05;19.35;77.17
47434;SHT31;33184;48.774;8.918;2022-08-19T02:37:26;19.34;77.36
47434;SHT31;33184;48.774;8.918;2022-08-19T02:43:07;19.29;77.66
47434;SHT31;33184;48.774;8.918;2022-08-19T02:48:28;19.22;77.76
47434;SHT31;33184;48.774;8.918;2022-08-19T02:53:49;19.21;78.00
47434;SHT31;33184;48.774;8.918;2022-08-19T02:59:10;19.14;78.33
47434;SHT31;33184;48.774;8.918;2022-08-19T03:04:31;19.14;78.34
47434;SHT31;33184;48.774;8.918;2022-08-19T03:09:52;19.09;78.49
47434;SHT31;33184;48.774;8.918;2022-08-19T03:15:13;18.98;78.76
47434;SHT31;33184;48.774;8.918;2022-08-19T03:20:33;18.98;78.58
47434;SHT31;33184;48.774;8.918;2022-08-19T03:25:54;18.94;78.75
47434;SHT31;33184;48.774;8.918;2022-08-19T03:31:17;18.91;79.06
47434;SHT31;33184;48.774;8.918;2022-08-19T03:36:38;18.87;79.42
47434;SHT31;33184;48.774;8.918;2022-08-19T03:41:59;18.78;79.86
47434;SHT31;33184;48.774;8.918;2022-08-19T03:47:22;18.75;80.20
47434;SHT31;33184;48.774;8.918;2022-08-19T03:52:48;18.74;79.96
47434;SHT31;33184;48.774;8.918;2022-08-19T03:58:08;18.70;80.61
47434;SHT31;33184;48.774;8.918;2022-08-19T04:03:31;18.68;80.62
47434;SHT31;33184;48.774;8.918;2022-08-19T04:08:54;18.68;80.69
47434;SHT31;33184;48.774;8.918;2022-08-19T04:14:18;18.70;80.54
47434;SHT31;33184;48.774;8.918;2022-08-19T04:19:40;18.68;80.89
47434;SHT31;33184;48.774;8.918;2022-08-19T04:25:02;18.70;80.53
47434;SHT31;33184;48.774;8.918;2022-08-19T04:30:22;18.68;80.90
47434;SHT31;33184;48.774;8.918;2022-08-19T04:35:46;18.68;81.15
47434;SHT31;33184;48.774;8.918;2022-08-19T04:41:07;18.68;81.47
47434;SHT31;33184;48.774;8.918;2022-08-19T04:46:47;18.67;81.49
47434;SHT31;33184;48.774;8.918;2022-08-19T04:52:08;18.68;81.63
47434;SHT31;33184;48.774;8.918;2022-08-19T04:57:29;18.61;82.03
47434;SHT31;33184;48.774;8.918;2022-08-19T05:02:49;18.61;82.13
47434;SHT31;33184;48.774;8.918;2022-08-19T05:08:12;18.63;82.00
47434;SHT31;33184;48.774;8.918;2022-08-19T05:13:33;18.67;82.08
47434;SHT31;33184;48.774;8.918;2022-08-19T05:18:54;18.70;81.92
47434;SHT31;33184;48.774;8.918;2022-08-19T05:24:33;18.73;81.86
47434;SHT31;33184;48.774;8.918;2022-08-19T05:29:54;18.77;81.60
47434;SHT31;33184;48.774;8.918;2022-08-19T05:35:15;18.73;81.72
47434;SHT31;33184;48.774;8.918;2022-08-19T05:40:35;18.77;81.73
47434;SHT31;33184;48.774;8.918;2022-08-19T05:45:56;18.78;81.80
47434;SHT31;33184;48.774;8.918;2022-08-19T05:51:17;18.77;81.71
47434;SHT31;33184;48.774;8.918;2022-08-19T05:56:37;18.78;81.64
47434;SHT31;33184;48.774;8.918;2022-08-19T06:01:58;18.77;81.64
47434;SHT31;33184;48.774;8.918;2022-08-19T06:07:20;18.81;81.32
47434;SHT31;33184;48.774;8.918;2022-08-19T06:12:41;18.87;81.06
47434;SHT31;33184;48.774;8.918;2022-08-19T06:18:01;18.89;80.99
47434;SHT31;33184;48.774;8.918;2022-08-19T06:23:22;18.87;80.89
47434;SHT31;33184;48.774;8.918;2022-08-19T06:28:43;18.89;80.49
47434;SHT31;33184;48.774;8.918;2022-08-19T06:34:06;18.97;80.35
47434;SHT31;33184;48.774;8.918;2022-08-19T06:39:31;18.95;80.03
47434;SHT31;33184;48.774;8.918;2022-08-19T06:44:52;18.98;79.96
47434;SHT31;33184;48.774;8.918;2022-08-19T06:50:13;18.97;80.07
47434;SHT31;33184;48.774;8.918;2022-08-19T06:55:34;18.99;80.23
47434;SHT31;33184;48.774;8.918;2022-08-19T07:00:55;19.04;79.98
47434;SHT31;33184;48.774;8.918;2022-08-19T07:06:17;19.18;79.62
47434;SHT31;33184;48.774;8.918;2022-08-19T07:11:47;19.31;78.98
47434;SHT31;33184;48.774;8.918;2022-08-19T07:17:11;19.42;78.69
47434;SHT31;33184;48.774;8.918;2022-08-19T07:22:32;19.58;78.08
47434;SHT31;33184;48.774;8.918;2022-08-19T07:27:53;19.89;77.49
47434;SHT31;33184;48.774;8.918;2022-08-19T07:33:14;19.99;76.76
47434;SHT31;33184;48.774;8.918;2022-08-19T07:38:35;20.00;76.35
47434;SHT31;33184;48.774;8.918;2022-08-19T07:43:55;20.03;76.53
47434;SHT31;33184;48.774;8.918;2022-08-19T07:49:16;20.21;75.75
47434;SHT31;33184;48.774;8.918;2022-08-19T07:54:40;20.16;75.42
47434;SHT31;33184;48.774;8.918;2022-08-19T08:00:03;20.09;75.32
47434;SHT31;33184;48.774;8.918;2022-08-19T08:05:32;20.07;75.79
47434;SHT31;33184;48.774;8.918;2022-08-19T08:11:12;20.18;75.67
47434;SHT31;33184;48.774;8.918;2022-08-19T08:16:37;20.31;75.22
47434;SHT31;33184;48.774;8.918;2022-08-19T08:21:59;20.37;75.22
47434;SHT31;33184;48.774;8.918;2022-08-19T08:27:20;20.32;75.40
47434;SHT31;33184;48.774;8.918;2022-08-19T08:32:41;20.47;75.21
47434;SHT31;33184;48.774;8.918;2022-08-19T08:38:02;20.37;75.01
47434;SHT31;33184;48.774;8.918;2022-08-19T08:43:32;20.35;75.10
47434;SHT31;33184;48.774;8.918;2022-08-19T08:54:44;20.44;74.82
47434;SHT31;33184;48.774;8.918;2022-08-19T09:00:15;20.45;74.81
47434;SHT31;33184;48.774;8.918;2022-08-19T09:11:10;20.82;73.97
47434;SHT31;33184;48.774;8.918;2022-08-19T09:16:32;21.00;73.37
47434;SHT31;33184;48.774;8.918;2022-08-19T09:21:52;21.00;72.82
47434;SHT31;33184;48.774;8.918;2022-08-19T09:27:13;21.00;72.80
47434;SHT31;33184;48.774;8.918;2022-08-19T09:32:35;21.09;72.47
47434;SHT31;33184;48.774;8.918;2022-08-19T09:37:57;21.07;72.68
47434;SHT31;33184;48.774;8.918;2022-08-19T09:43:17;21.06;72.48
47434;SHT31;33184;48.774;8.918;2022-08-19T09:48:39;21.05;72.44
47434;SHT31;33184;48.774;8.918;2022-08-19T09:54:02;21.03;72.59
47434;SHT31;33184;48.774;8.918;2022-08-19T09:59:23;21.10;72.17
47434;SHT31;33184;48.774;8.918;2022-08-19T10:04:44;21.15;71.65
47434;SHT31;33184;48.774;8.918;2022-08-19T10:10:23;21.37;70.94
47434;SHT31;33184;48.774;8.918;2022-08-19T10:15:44;21.43;70.00
47434;SHT31;33184;48.774;8.918;2022-08-19T10:21:11;21.53;69.28
47434;SHT31;33184;48.774;8.918;2022-08-19T10:26:38;21.61;69.33
47434;SHT31;33184;48.774;8.918;2022-08-19T10:32:04;21.78;68.37
47434;SHT31;33184;48.774;8.918;2022-08-19T10:37:27;21.85;67.13
47434;SHT31;33184;48.774;8.918;2022-08-19T10:42:50;22.01;67.39
47434;SHT31;33184;48.774;8.918;2022-08-19T10:48:12;22.43;65.85
47434;SHT31;33184;48.774;8.918;2022-08-19T10:53:32;22.56;65.20
47434;SHT31;33184;48.774;8.918;2022-08-19T10:58:53;22.77;64.69
47434;SHT31;33184;48.774;8.918;2022-08-19T11:04:15;23.09;63.16
47434;SHT31;33184;48.774;8.918;2022-08-19T11:09:39;23.16;61.72
47434;SHT31;33184;48.774;8.918;2022-08-19T11:15:01;22.94;61.76
47434;SHT31;33184;48.774;8.918;2022-08-19T11:20:21;22.68;62.90
47434;SHT31;33184;48.774;8.918;2022-08-19T11:25:43;22.83;62.73
47434;SHT31;33184;48.774;8.918;2022-08-19T11:31:13;22.96;61.90
47434;SHT31;33184;48.774;8.918;2022-08-19T11:36:36;22.87;61.99
47434;SHT31;33184;48.774;8.918;2022-08-19T11:41:59;23.00;62.29
47434;SHT31;33184;48.774;8.918;2022-08-19T11:47:20;23.03;59.52
47434;SHT31;33184;48.774;8.918;2022-08-19T11:52:42;22.87;60.54
47434;SHT31;33184;48.774;8.918;2022-08-19T11:58:04;22.96;59.87
47434;SHT31;33184;48.774;8.918;2022-08-19T12:03:26;23.13;58.63
47434;SHT31;33184;48.774;8.918;2022-08-19T12:08:48;23.50;57.16
47434;SHT31;33184;48.774;8.918;2022-08-19T12:14:10;23.91;53.89
47434;SHT31;33184;48.774;8.918;2022-08-19T12:19:32;24.59;52.31
47434;SHT31;33184;48.774;8.918;2022-08-19T12:24:54;24.86;52.00
47434;SHT31;33184;48.774;8.918;2022-08-19T12:30:15;25.20;51.32
47434;SHT31;33184;48.774;8.918;2022-08-19T12:35:39;25.78;49.90
47434;SHT31;33184;48.774;8.918;2022-08-19T12:41:03;26.72;49.00
47434;SHT31;33184;48.774;8.918;2022-08-19T12:46:26;26.02;48.84
47434;SHT31;33184;48.774;8.918;2022-08-19T12:51:47;25.72;48.61
47434;SHT31;33184;48.774;8.918;2022-08-19T12:57:08;25.39;48.49
47434;SHT31;33184;48.774;8.918;2022-08-19T13:02:29;25.42;49.11
47434;SHT31;33184;48.774;8.918;2022-08-19T13:07:53;25.34;49.14
47434;SHT31;33184;48.774;8.918;2022-08-19T13:13:17;25.55;48.95
47434;SHT31;33184;48.774;8.918;2022-08-19T13:18:40;25.17;49.15
47434;SHT31;33184;48.774;8.918;2022-08-19T13:24:00;25.07;49.75
47434;SHT31;33184;48.774;8.918;2022-08-19T13:29:21;24.87;52.10
47434;SHT31;33184;48.774;8.918;2022-08-19T13:35:01;24.71;53.30
47434;SHT31;33184;48.774;8.918;2022-08-19T13:40:24;24.69;53.38
47434;SHT31;33184;48.774;8.918;2022-08-19T13:45:46;24.62;53.51
47434;SHT31;33184;48.774;8.918;2022-08-19T13:51:07;24.66;53.58
47434;SHT31;33184;48.774;8.918;2022-08-19T13:56:34;24.49;53.67
47434;SHT31;33184;48.774;8.918;2022-08-19T14:01:58;24.35;54.43
47434;SHT31;33184;48.774;8.918;2022-08-19T14:07:20;24.15;53.82
47434;SHT31;33184;48.774;8.918;2022-08-19T14:12:44;24.04;53.46
47434;SHT31;33184;48.774;8.918;2022-08-19T14:18:04;24.01;53.50
47434;SHT31;33184;48.774;8.918;2022-08-19T14:23:25;24.02;53.39
47434;SHT31;33184;48.774;8.918;2022-08-19T14:28:46;24.12;53.10
47434;SHT31;33184;48.774;8.918;2022-08-19T14:34:06;24.19;52.93
47434;SHT31;33184;48.774;8.918;2022-08-19T14:39:27;24.22;52.80
47434;SHT31;33184;48.774;8.918;2022-08-19T14:44:48;24.20;52.74
47434;SHT31;33184;48.774;8.918;2022-08-19T14:50:09;24.30;53.09
47434;SHT31;33184;48.774;8.918;2022-08-19T14:55:31;24.28;51.54
47434;SHT31;33184;48.774;8.918;2022-08-19T15:00:52;24.32;50.96
47434;SHT31;33184;48.774;8.918;2022-08-19T15:06:13;24.59;50.89
47434;SHT31;33184;48.774;8.918;2022-08-19T15:11:34;25.17;48.14
47434;SHT31;33184;48.774;8.918;2022-08-19T15:16:55;25.49;47.66
47434;SHT31;33184;48.774;8.918;2022-08-19T15:22:16;25.66;46.98
47434;SHT31;33184;48.774;8.918;2022-08-19T15:27:37;25.86;46.78
47434;SHT31;33184;48.774;8.918;2022-08-19T15:32:59;25.89;47.12
47434;SHT31;33184;48.774;8.918;2022-08-19T15:38:20;25.86;46.28
47434;SHT31;33184;48.774;8.918;2022-08-19T15:43:46;25.90;46.29
47434;SHT31;33184;48.774;8.918;2022-08-19T15:49:09;25.68;45.85
47434;SHT31;33184;48.774;8.918;2022-08-19T15:54:30;25.28;47.60
47434;SHT31;33184;48.774;8.918;2022-08-19T15:59:51;25.14;47.41
47434;SHT31;33184;48.774;8.918;2022-08-19T16:05:30;24.90;48.21
47434;SHT31;33184;48.774;8.918;2022-08-19T16:11:13;24.76;48.67
47434;SHT31;33184;48.774;8.918;2022-08-19T16:16:34;24.73;49.15
47434;SHT31;33184;48.774;8.918;2022-08-19T16:21:56;24.69;48.71
47434;SHT31;33184;48.774;8.918;2022-08-19T16:27:17;24.66;48.60
47434;SHT31;33184;48.774;8.918;2022-08-19T16:32:42;24.55;48.89
47434;SHT31;33184;48.774;8.918;2022-08-19T16:38:02;24.50;49.02
47434;SHT31;33184;48.774;8.918;2022-08-19T16:43:24;24.49;49.46
47434;SHT31;33184;48.774;8.918;2022-08-19T16:48:44;24.42;49.56
47434;SHT31;33184;48.774;8.918;2022-08-19T16:54:06;24.42;49.95
47434;SHT31;33184;48.774;8.918;2022-08-19T16:59:27;24.42;49.96
47434;SHT31;33184;48.774;8.918;2022-08-19T17:04:48;24.40;49.98
47434;SHT31;33184;48.774;8.918;2022-08-19T17:10:09;24.39;49.78
47434;SHT31;33184;48.774;8.918;2022-08-19T17:15:30;24.48;49.91
47434;SHT31;33184;48.774;8.918;2022-08-19T17:20:52;24.53;50.01
47434;SHT31;33184;48.774;8.918;2022-08-19T17:26:15;24.56;50.11
47434;SHT31;33184;48.774;8.918;2022-08-19T17:31:39;24.52;49.94
47434;SHT31;33184;48.774;8.918;2022-08-19T17:37:00;24.42;49.70
47434;SHT31;33184;48.774;8.918;2022-08-19T17:42:20;24.35;49.49
47434;SHT31;33184;48.774;8.918;2022-08-19T17:47:41;24.25;48.99
47434;SHT31;33184;48.774;8.918;2022-08-19T17:53:03;24.20;49.41
47434;SHT31;33184;48.774;8.918;2022-08-19T17:58:24;24.08;49.27
47434;SHT31;33184;48.774;8.918;2022-08-19T18:03:46;23.94;49.75
47434;SHT31;33184;48.774;8.918;2022-08-19T18:09:07;23.82;50.02
47434;SHT31;33184;48.774;8.918;2022-08-19T18:14:31;23.75;50.05
47434;SHT31;33184;48.774;8.918;2022-08-19T18:19:52;23.65;50.36
47434;SHT31;33184;48.774;8.918;2022-08-19T18:25:24;23.55;50.79
47434;SHT31;33184;48.774;8.918;2022-08-19T18:30:45;23.48;51.27
47434;SHT31;33184;48.774;8.918;2022-08-19T18:36:06;23.33;53.35
47434;SHT31;33184;48.774;8.918;2022-08-19T18:41:26;23.12;55.60
47434;SHT31;33184;48.774;8.918;2022-08-19T18:47:05;22.97;56.36
47434;SHT31;33184;48.774;8.918;2022-08-19T18:52:44;22.82;57.05
47434;SHT31;33184;48.774;8.918;2022-08-19T18:58:05;22.68;57.53
47434;SHT31;33184;48.774;8.918;2022-08-19T19:03:26;22.55;57.45
47434;SHT31;33184;48.774;8.918;2022-08-19T19:08:47;22.48;57.65
47434;SHT31;33184;48.774;8.918;2022-08-19T19:14:10;22.49;57.17
47434;SHT31;33184;48.774;8.918;2022-08-19T19:19:33;22.45;57.16
47434;SHT31;33184;48.774;8.918;2022-08-19T19:24:54;22.39;57.00
47434;SHT31;33184;48.774;8.918;2022-08-19T19:30:15;22.38;57.01
47434;SHT31;33184;48.774;8.918;2022-08-19T19:35:36;22.32;57.07
47434;SHT31;33184;48.774;8.918;2022-08-19T19:40:56;22.25;56.95
47434;SHT31;33184;48.774;8.918;2022-08-19T19:46:17;22.26;56.62
47434;SHT31;33184;48.774;8.918;2022-08-19T19:51:39;22.28;56.71
47434;SHT31;33184;48.774;8.918;2022-08-19T19:57:00;22.26;56.59
47434;SHT31;33184;48.774;8.918;2022-08-19T20:02:20;22.21;56.85
47434;SHT31;33184;48.774;8.918;2022-08-19T20:07:41;22.12;57.24
47434;SHT31;33184;48.774;8.918;2022-08-19T20:13:20;22.01;57.51
47434;SHT31;33184;48.774;8.918;2022-08-19T20:18:41;21.98;57.46
47434;SHT31;33184;48.774;8.918;2022-08-19T20:24:03;21.91;57.93
47434;SHT31;33184;48.774;8.918;2022-08-19T20:29:24;21.85;57.83
47434;SHT31;33184;48.774;8.918;2022-08-19T20:34:44;21.87;57.89
47434;SHT31;33184;48.774;8.918;2022-08-19T20:40:09;21.80;58.45
47434;SHT31;33184;48.774;8.918;2022-08-19T20:45:30;21.71;59.07
47434;SHT31;33184;48.774;8.918;2022-08-19T20:50:56;21.68;59.11
47434;SHT31;33184;48.774;8.918;2022-08-19T20:56:16;21.68;59.43
47434;SHT31;33184;48.774;8.918;2022-08-19T21:01:37;21.67;60.00
47434;SHT31;33184;48.774;8.918;2022-08-19T21:06:58;21.61;60.55
47434;SHT31;33184;48.774;8.918;2022-08-19T21:12:19;21.61;61.10
47434;SHT31;33184;48.774;8.918;2022-08-19T21:17:40;21.56;61.96
47434;SHT31;33184;48.774;8.918;2022-08-19T21:23:05;21.50;62.74
47434;SHT31;33184;48.774;8.918;2022-08-19T21:28:29;21.43;63.10
47434;SHT31;33184;48.774;8.918;2022-08-19T21:33:49;21.42;63.76
47434;SHT31;33184;48.774;8.918;2022-08-19T21:39:10;21.42;64.14
47434;SHT31;33184;48.774;8.918;2022-08-19T21:44:31;21.36;64.59
47434;SHT31;33184;48.774;8.918;2022-08-19T21:49:52;21.40;64.95
47434;SHT31;33184;48.774;8.918;2022-08-19T21:55:13;21.40;65.20
47434;SHT31;33184;48.774;8.918;2022-08-19T22:00:34;21.40;66.31
47434;SHT31;33184;48.774;8.918;2022-08-19T22:05:55;21.19;69.29
47434;SHT31;33184;48.774;8.918;2022-08-19T22:11:17;21.03;69.29
47434;SHT31;33184;48.774;8.918;2022-08-19T22:16:38;21.02;68.84
47434;SHT31;33184;48.774;8.918;2022-08-19T22:21:59;21.03;68.85
47434;SHT31;33184;48.774;8.918;2022-08-19T22:27:20;21.07;68.32
47434;SHT31;33184;48.774;8.918;2022-08-19T22:32:49;21.07;68.06
47434;SHT31;33184;48.774;8.918;2022-08-19T22:38:11;21.03;67.86
47434;SHT31;33184;48.774;8.918;2022-08-19T22:43:32;21.00;68.19
47434;SHT31;33184;48.774;8.918;2022-08-19T22:48:53;20.94;68.09
47434;SHT31;33184;48.774;8.918;2022-08-19T22:54:14;20.88;68.36
47434;SHT31;33184;48.774;8.918;2022-08-19T22:59:34;20.81;68.70
47434;SHT31;33184;48.774;8.918;2022-08-19T23:04:59;20.67;69.21
47434;SHT31;33184;48.774;8.918;2022-08-19T23:10:21;20.55;69.24
47434;SHT31;33184;48.774;8.918;2022-08-19T23:15:44;20.44;69.74
47434;SHT31;33184;48.774;8.918;2022-08-19T23:21:05;20.34;70.18
47434;SHT31;33184;48.774;8.918;2022-08-19T23:26:28;20.22;70.69
47434;SHT31;33184;48.774;8.918;2022-08-19T23:31:49;20.11;71.03
47434;SHT31;33184;48.774;8.918;2022-08-19T23:37:10;20.00;71.58
47434;SHT31;33184;48.774;8.918;2022-08-19T23:42:34;19.93;71.84
47434;SHT31;33184;48.774;8.918;2022-08-19T23:47:55;19.84;72.36
47434;SHT31;33184;48.774;8.918;2022-08-19T23:53:19;19.81;72.55
47434;SHT31;33184;48.774;8.918;2022-08-19T23:58:40;19.70;72.58
